sensor_id;sensor_type;location;lat;lon;timestamp;P1;durP1;ratioP1;P2;durP2;ratioP2
47431;SDS011;33183;52.290;6.144;2023-02-03T00:00:24;6.47;;;3.10;;
47431;SDS011;33183;52.290;6.144;2023-02-03T00:02:52;4.50;;;2.22;;
47431;SDS011;33183;52.290;6.144;2023-02-03T00:05:18;4.00;;;2.13;;
47431;SDS011;33183;52.290;6.144;2023-02-03T00:07:43;5.13;;;2.53;;
47431;SDS011;33183;52.290;6.144;2023-02-03T00:10:08;3.97;;;2.10;;
47431;SDS011;33183;52.290;6.144;2023-02-03T00:12:34;5.65;;;2.22;;
47431;SDS011;33183;52.290;6.144;2023-02-03T00:14:59;4.53;;;2.20;;
47431;SDS011;33183;52.290;6.144;2023-02-03T00:17:24;4.13;;;2.35;;
47431;SDS011;33183;52.290;6.144;2023-02-03T00:19:50;5.82;;;2.60;;
47431;SDS011;33183;52.290;6.144;2023-02-03T00:22:15;5.07;;;2.22;;
47431;SDS011;33183;52.290;6.144;2023-02-03T00:24:40;6.45;;;2.35;;
47431;SDS011;33183;52.290;6.144;2023-02-03T00:27:05;7.25;;;2.63;;
47431;SDS011;33183;52.290;6.144;2023-02-03T00:29:31;4.13;;;2.22;;
47431;SDS011;33183;52.290;6.144;2023-02-03T00:31:56;4.93;;;2.17;;
47431;SDS011;33183;52.290;6.144;2023-02-03T00:34:26;5.65;;;2.42;;
47431;SDS011;33183;52.290;6.144;2023-02-03T00:36:52;4.10;;;2.20;;
47431;SDS011;33183;52.290;6.144;2023-02-03T00:39:17;5.55;;;2.40;;
47431;SDS011;33183;52.290;6.144;2023-02-03T00:41:42;5.85;;;2.53;;
47431;SDS011;33183;52.290;6.144;2023-02-03T00:44:08;4.22;;;1.80;;
47431;SDS011;33183;52.290;6.144;2023-02-03T00:46:33;5.13;;;2.28;;
47431;SDS011;33183;52.290;6.144;2023-02-03T00:49:00;6.22;;;2.63;;
47431;SDS011;33183;52.290;6.144;2023-02-03T00:51:25;4.57;;;2.33;;
47431;SDS011;33183;52.290;6.144;2023-02-03T00:53:51;7.60;;;2.72;;
47431;SDS011;33183;52.290;6.144;2023-02-03T00:56:16;4.88;;;2.08;;
47431;SDS011;33183;52.290;6.144;2023-02-03T00:58:41;4.32;;;2.17;;
47431;SDS011;33183;52.290;6.144;2023-02-03T01:01:07;7.72;;;2.67;;
47431;SDS011;33183;52.290;6.144;2023-02-03T01:03:32;5.18;;;2.33;;
47431;SDS011;33183;52.290;6.144;2023-02-03T01:06:14;5.13;;;2.22;;
47431;SDS011;33183;52.290;6.144;2023-02-03T01:08:41;5.13;;;2.20;;
47431;SDS011;33183;52.290;6.144;2023-02-03T01:11:11;4.20;;;2.20;;
47431;SDS011;33183;52.290;6.144;2023-02-03T01:13:39;4.57;;;2.40;;
47431;SDS011;33183;52.290;6.144;2023-02-03T01:16:08;5.03;;;1.88;;
47431;SDS011;33183;52.290;6.144;2023-02-03T01:18:34;5.68;;;2.25;;
47431;SDS011;33183;52.290;6.144;2023-02-03T01:21:10;5.28;;;2.00;;
47431;SDS011;33183;52.290;6.144;2023-02-03T01:23:40;4.22;;;1.88;;
47431;SDS011;33183;52.290;6.144;2023-02-03T01:26:09;6.72;;;3.13;;
47431;SDS011;33183;52.290;6.144;2023-02-03T01:28:36;6.15;;;2.13;;
47431;SDS011;33183;52.290;6.144;2023-02-03T01:33:33;4.63;;;1.75;;
47431;SDS011;33183;52.290;6.144;2023-02-03T01:35:59;4.57;;;2.00;;
47431;SDS011;33183;52.290;6.144;2023-02-03T01:38:25;5.47;;;2.60;;
47431;SDS011;33183;52.290;6.144;2023-02-03T01:40:50;4.50;;;2.08;;
47431;SDS011;33183;52.290;6.144;2023-02-03T01:43:28;6.07;;;3.00;;
47431;SDS011;33183;52.290;6.144;2023-02-03T01:45:54;3.42;;;1.60;;
47431;SDS011;33183;52.290;6.144;2023-02-03T01:48:19;5.55;;;2.58;;
47431;SDS011;33183;52.290;6.144;2023-02-03T01:50:44;5.95;;;2.30;;
47431;SDS011;33183;52.290;6.144;2023-02-03T01:53:10;4.57;;;2.03;;
47431;SDS011;33183;52.290;6.144;2023-02-03T01:55:37;5.75;;;1.80;;
47431;SDS011;33183;52.290;6.144;2023-02-03T02:00:32;3.47;;;1.50;;
47431;SDS011;33183;52.290;6.144;2023-02-03T02:02:57;6.20;;;1.77;;
47431;SDS011;33183;52.290;6.144;2023-02-03T02:05:28;3.33;;;1.70;;
47431;SDS011;33183;52.290;6.144;2023-02-03T02:07:57;3.45;;;1.80;;
47431;SDS011;33183;52.290;6.144;2023-02-03T02:10:24;5.93;;;1.98;;
47431;SDS011;33183;52.290;6.144;2023-02-03T02:12:50;6.03;;;2.42;;
47431;SDS011;33183;52.290;6.144;2023-02-03T02:15:15;8.23;;;2.65;;
47431;SDS011;33183;52.290;6.144;2023-02-03T02:20:30;5.78;;;1.98;;
47431;SDS011;33183;52.290;6.144;2023-02-03T02:26:26;5.22;;;1.90;;
47431;SDS011;33183;52.290;6.144;2023-02-03T02:42:52;4.05;;;1.70;;
47431;SDS011;33183;52.290;6.144;2023-02-03T02:45:43;4.35;;;1.55;;
47431;SDS011;33183;52.290;6.144;2023-02-03T02:48:21;4.47;;;1.70;;
47431;SDS011;33183;52.290;6.144;2023-02-03T02:50:48;3.97;;;1.60;;
47431;SDS011;33183;52.290;6.144;2023-02-03T02:53:17;4.32;;;1.95;;
47431;SDS011;33183;52.290;6.144;2023-02-03T02:55:45;4.85;;;1.77;;
47431;SDS011;33183;52.290;6.144;2023-02-03T02:58:10;5.82;;;1.80;;
47431;SDS011;33183;52.290;6.144;2023-02-03T03:00:38;4.25;;;1.63;;
47431;SDS011;33183;52.290;6.144;2023-02-03T03:03:11;6.75;;;2.67;;
47431;SDS011;33183;52.290;6.144;2023-02-03T03:05:37;4.88;;;1.70;;
47431;SDS011;33183;52.290;6.144;2023-02-03T03:08:04;6.07;;;1.63;;
47431;SDS011;33183;52.290;6.144;2023-02-03T03:10:30;3.40;;;1.83;;
47431;SDS011;33183;52.290;6.144;2023-02-03T03:13:04;3.33;;;1.58;;
47431;SDS011;33183;52.290;6.144;2023-02-03T03:15:33;4.32;;;2.15;;
47431;SDS011;33183;52.290;6.144;2023-02-03T03:18:06;4.38;;;1.75;;
47431;SDS011;33183;52.290;6.144;2023-02-03T03:20:46;6.60;;;2.22;;
47431;SDS011;33183;52.290;6.144;2023-02-03T03:23:58;4.28;;;1.73;;
47431;SDS011;33183;52.290;6.144;2023-02-03T03:26:11;4.43;;;1.90;;
47431;SDS011;33183;52.290;6.144;2023-02-03T03:28:41;4.63;;;2.08;;
47431;SDS011;33183;52.290;6.144;2023-02-03T03:31:11;2.60;;;1.33;;
47431;SDS011;33183;52.290;6.144;2023-02-03T03:33:36;4.25;;;2.28;;
47431;SDS011;33183;52.290;6.144;2023-02-03T03:36:04;6.30;;;1.92;;
47431;SDS011;33183;52.290;6.144;2023-02-03T03:38:54;4.78;;;1.40;;
47431;SDS011;33183;52.290;6.144;2023-02-03T03:41:33;3.47;;;1.73;;
47431;SDS011;33183;52.290;6.144;2023-02-03T03:44:01;4.60;;;1.60;;
47431;SDS011;33183;52.290;6.144;2023-02-03T03:46:29;4.17;;;1.53;;
47431;SDS011;33183;52.290;6.144;2023-02-03T03:49:01;3.40;;;1.48;;
47431;SDS011;33183;52.290;6.144;2023-02-03T03:51:30;2.88;;;1.40;;
47431;SDS011;33183;52.290;6.144;2023-02-03T03:53:59;3.67;;;1.77;;
47431;SDS011;33183;52.290;6.144;2023-02-03T03:56:31;5.80;;;1.75;;
47431;SDS011;33183;52.290;6.144;2023-02-03T03:59:01;2.60;;;1.60;;
47431;SDS011;33183;52.290;6.144;2023-02-03T04:01:27;3.47;;;1.48;;
47431;SDS011;33183;52.290;6.144;2023-02-03T04:03:54;4.88;;;1.42;;
47431;SDS011;33183;52.290;6.144;2023-02-03T04:06:22;3.33;;;1.40;;
47431;SDS011;33183;52.290;6.144;2023-02-03T04:08:47;3.00;;;1.70;;
47431;SDS011;33183;52.290;6.144;2023-02-03T04:11:12;3.03;;;1.23;;
47431;SDS011;33183;52.290;6.144;2023-02-03T04:13:58;2.35;;;1.40;;
47431;SDS011;33183;52.290;6.144;2023-02-03T04:16:23;2.95;;;1.73;;
47431;SDS011;33183;52.290;6.144;2023-02-03T04:18:48;3.58;;;1.52;;
47431;SDS011;33183;52.290;6.144;2023-02-03T04:21:13;3.92;;;1.40;;
47431;SDS011;33183;52.290;6.144;2023-02-03T04:23:39;4.00;;;1.95;;
47431;SDS011;33183;52.290;6.144;2023-02-03T04:26:04;4.57;;;1.60;;
47431;SDS011;33183;52.290;6.144;2023-02-03T04:28:29;5.03;;;1.70;;
47431;SDS011;33183;52.290;6.144;2023-02-03T04:30:54;3.50;;;1.42;;
47431;SDS011;33183;52.290;6.144;2023-02-03T04:33:20;4.50;;;1.38;;
47431;SDS011;33183;52.290;6.144;2023-02-03T04:35:45;4.22;;;1.77;;
47431;SDS011;33183;52.290;6.144;2023-02-03T04:38:10;3.58;;;1.60;;
47431;SDS011;33183;52.290;6.144;2023-02-03T04:40:35;2.88;;;1.40;;
47431;SDS011;33183;52.290;6.144;2023-02-03T04:43:04;3.88;;;1.60;;
47431;SDS011;33183;52.290;6.144;2023-02-03T04:45:31;6.32;;;1.88;;
47431;SDS011;33183;52.290;6.144;2023-02-03T04:47:56;3.90;;;1.40;;
47431;SDS011;33183;52.290;6.144;2023-02-03T04:50:21;3.78;;;1.48;;
47431;SDS011;33183;52.290;6.144;2023-02-03T04:52:47;3.78;;;1.40;;
47431;SDS011;33183;52.290;6.144;2023-02-03T04:55:12;3.80;;;1.40;;
47431;SDS011;33183;52.290;6.144;2023-02-03T04:57:37;4.65;;;1.45;;
47431;SDS011;33183;52.290;6.144;2023-02-03T05:00:03;3.78;;;1.45;;
47431;SDS011;33183;52.290;6.144;2023-02-03T05:02:28;3.45;;;1.60;;
47431;SDS011;33183;52.290;6.144;2023-02-03T05:04:53;4.65;;;1.70;;
47431;SDS011;33183;52.290;6.144;2023-02-03T05:07:19;3.65;;;1.50;;
47431;SDS011;33183;52.290;6.144;2023-02-03T05:09:44;4.53;;;1.63;;
47431;SDS011;33183;52.290;6.144;2023-02-03T05:12:09;3.72;;;1.30;;
47431;SDS011;33183;52.290;6.144;2023-02-03T05:14:35;4.80;;;1.67;;
47431;SDS011;33183;52.290;6.144;2023-02-03T05:17:00;4.03;;;1.50;;
47431;SDS011;33183;52.290;6.144;2023-02-03T05:19:25;4.22;;;1.48;;
47431;SDS011;33183;52.290;6.144;2023-02-03T05:21:50;4.68;;;1.38;;
47431;SDS011;33183;52.290;6.144;2023-02-03T05:24:16;6.53;;;2.55;;
47431;SDS011;33183;52.290;6.144;2023-02-03T05:26:41;7.95;;;2.05;;
47431;SDS011;33183;52.290;6.144;2023-02-03T05:29:06;3.55;;;1.52;;
47431;SDS011;33183;52.290;6.144;2023-02-03T05:31:32;4.22;;;1.58;;
47431;SDS011;33183;52.290;6.144;2023-02-03T05:33:57;3.45;;;1.40;;
47431;SDS011;33183;52.290;6.144;2023-02-03T05:36:22;3.85;;;1.95;;
47431;SDS011;33183;52.290;6.144;2023-02-03T05:38:49;4.70;;;1.67;;
47431;SDS011;33183;52.290;6.144;2023-02-03T05:41:14;3.95;;;1.65;;
47431;SDS011;33183;52.290;6.144;2023-02-03T05:43:58;4.43;;;1.63;;
47431;SDS011;33183;52.290;6.144;2023-02-03T05:46:23;3.92;;;1.60;;
47431;SDS011;33183;52.290;6.144;2023-02-03T05:48:48;5.15;;;1.40;;
47431;SDS011;33183;52.290;6.144;2023-02-03T05:51:14;5.47;;;1.70;;
47431;SDS011;33183;52.290;6.144;2023-02-03T05:53:39;4.18;;;1.27;;
47431;SDS011;33183;52.290;6.144;2023-02-03T05:56:04;5.93;;;1.63;;
47431;SDS011;33183;52.290;6.144;2023-02-03T05:58:30;5.15;;;1.50;;
47431;SDS011;33183;52.290;6.144;2023-02-03T06:00:55;4.38;;;1.38;;
47431;SDS011;33183;52.290;6.144;2023-02-03T06:03:20;2.90;;;1.42;;
47431;SDS011;33183;52.290;6.144;2023-02-03T06:05:46;4.03;;;1.52;;
47431;SDS011;33183;52.290;6.144;2023-02-03T06:08:11;6.25;;;2.10;;
47431;SDS011;33183;52.290;6.144;2023-02-03T06:10:36;3.80;;;1.42;;
47431;SDS011;33183;52.290;6.144;2023-02-03T06:13:12;4.40;;;1.58;;
47431;SDS011;33183;52.290;6.144;2023-02-03T06:15:39;3.63;;;1.38;;
47431;SDS011;33183;52.290;6.144;2023-02-03T06:18:05;3.17;;;1.40;;
47431;SDS011;33183;52.290;6.144;2023-02-03T06:20:30;5.13;;;1.77;;
47431;SDS011;33183;52.290;6.144;2023-02-03T06:22:56;3.75;;;1.50;;
47431;SDS011;33183;52.290;6.144;2023-02-03T06:25:21;5.75;;;1.65;;
47431;SDS011;33183;52.290;6.144;2023-02-03T06:27:48;3.13;;;1.23;;
47431;SDS011;33183;52.290;6.144;2023-02-03T06:30:13;4.45;;;1.30;;
47431;SDS011;33183;52.290;6.144;2023-02-03T06:32:39;5.07;;;1.65;;
47431;SDS011;33183;52.290;6.144;2023-02-03T06:35:04;3.42;;;1.42;;
47431;SDS011;33183;52.290;6.144;2023-02-03T06:37:30;3.03;;;1.17;;
47431;SDS011;33183;52.290;6.144;2023-02-03T06:39:56;3.40;;;1.42;;
47431;SDS011;33183;52.290;6.144;2023-02-03T06:42:21;5.68;;;1.98;;
47431;SDS011;33183;52.290;6.144;2023-02-03T06:44:46;3.28;;;1.55;;
47431;SDS011;33183;52.290;6.144;2023-02-03T06:47:12;5.70;;;1.90;;
47431;SDS011;33183;52.290;6.144;2023-02-03T06:49:37;3.78;;;1.63;;
47431;SDS011;33183;52.290;6.144;2023-02-03T06:52:02;6.13;;;1.90;;
47431;SDS011;33183;52.290;6.144;2023-02-03T06:54:28;3.65;;;1.40;;
47431;SDS011;33183;52.290;6.144;2023-02-03T06:56:53;4.15;;;1.45;;
47431;SDS011;33183;52.290;6.144;2023-02-03T06:59:18;3.67;;;1.42;;
47431;SDS011;33183;52.290;6.144;2023-02-03T07:01:43;5.60;;;1.50;;
47431;SDS011;33183;52.290;6.144;2023-02-03T07:04:09;4.15;;;1.45;;
47431;SDS011;33183;52.290;6.144;2023-02-03T07:06:34;5.78;;;1.48;;
47431;SDS011;33183;52.290;6.144;2023-02-03T07:09:00;3.50;;;1.60;;
47431;SDS011;33183;52.290;6.144;2023-02-03T07:11:26;5.63;;;1.58;;
47431;SDS011;33183;52.290;6.144;2023-02-03T07:13:51;4.43;;;2.00;;
47431;SDS011;33183;52.290;6.144;2023-02-03T07:16:17;6.20;;;1.48;;
47431;SDS011;33183;52.290;6.144;2023-02-03T07:18:43;10.60;;;1.60;;
47431;SDS011;33183;52.290;6.144;2023-02-03T07:21:08;6.28;;;1.40;;
47431;SDS011;33183;52.290;6.144;2023-02-03T07:23:34;4.75;;;1.60;;
47431;SDS011;33183;52.290;6.144;2023-02-03T07:26:00;6.05;;;2.08;;
47431;SDS011;33183;52.290;6.144;2023-02-03T07:28:27;3.33;;;1.63;;
47431;SDS011;33183;52.290;6.144;2023-02-03T07:30:52;6.40;;;2.55;;
47431;SDS011;33183;52.290;6.144;2023-02-03T07:33:17;4.20;;;1.60;;
47431;SDS011;33183;52.290;6.144;2023-02-03T07:35:43;5.53;;;1.58;;
47431;SDS011;33183;52.290;6.144;2023-02-03T07:38:08;5.80;;;1.75;;
47431;SDS011;33183;52.290;6.144;2023-02-03T07:40:34;4.50;;;1.83;;
47431;SDS011;33183;52.290;6.144;2023-02-03T07:42:59;4.97;;;1.63;;
47431;SDS011;33183;52.290;6.144;2023-02-03T07:45:25;4.93;;;1.88;;
47431;SDS011;33183;52.290;6.144;2023-02-03T07:47:50;5.93;;;1.65;;
47431;SDS011;33183;52.290;6.144;2023-02-03T07:50:15;3.03;;;1.40;;
47431;SDS011;33183;52.290;6.144;2023-02-03T07:52:41;4.95;;;1.70;;
47431;SDS011;33183;52.290;6.144;2023-02-03T07:55:06;4.07;;;1.58;;
47431;SDS011;33183;52.290;6.144;2023-02-03T07:57:32;6.30;;;1.83;;
47431;SDS011;33183;52.290;6.144;2023-02-03T07:59:57;5.85;;;1.95;;
47431;SDS011;33183;52.290;6.144;2023-02-03T08:02:22;3.33;;;1.60;;
47431;SDS011;33183;52.290;6.144;2023-02-03T08:04:48;5.05;;;1.63;;
47431;SDS011;33183;52.290;6.144;2023-02-03T08:07:13;4.03;;;1.55;;
47431;SDS011;33183;52.290;6.144;2023-02-03T08:09:38;6.40;;;1.80;;
47431;SDS011;33183;52.290;6.144;2023-02-03T08:12:04;5.60;;;2.40;;
47431;SDS011;33183;52.290;6.144;2023-02-03T08:14:29;4.07;;;1.40;;
47431;SDS011;33183;52.290;6.144;2023-02-03T08:16:55;4.82;;;1.58;;
47431;SDS011;33183;52.290;6.144;2023-02-03T08:19:20;6.65;;;2.17;;
47431;SDS011;33183;52.290;6.144;2023-02-03T08:21:45;6.25;;;2.45;;
47431;SDS011;33183;52.290;6.144;2023-02-03T08:24:11;5.85;;;1.90;;
47431;SDS011;33183;52.290;6.144;2023-02-03T08:26:36;4.25;;;1.60;;
47431;SDS011;33183;52.290;6.144;2023-02-03T08:29:02;3.83;;;1.70;;
47431;SDS011;33183;52.290;6.144;2023-02-03T08:31:27;4.57;;;1.92;;
47431;SDS011;33183;52.290;6.144;2023-02-03T08:33:53;5.50;;;2.05;;
47431;SDS011;33183;52.290;6.144;2023-02-03T08:36:18;4.88;;;1.77;;
47431;SDS011;33183;52.290;6.144;2023-02-03T08:38:44;6.75;;;2.38;;
47431;SDS011;33183;52.290;6.144;2023-02-03T08:41:10;7.30;;;1.63;;
47431;SDS011;33183;52.290;6.144;2023-02-03T08:43:37;5.15;;;1.67;;
47431;SDS011;33183;52.290;6.144;2023-02-03T08:46:03;6.40;;;1.65;;
47431;SDS011;33183;52.290;6.144;2023-02-03T08:48:29;8.10;;;2.47;;
47431;SDS011;33183;52.290;6.144;2023-02-03T08:50:54;4.57;;;2.42;;
47431;SDS011;33183;52.290;6.144;2023-02-03T08:53:20;8.43;;;2.00;;
47431;SDS011;33183;52.290;6.144;2023-02-03T08:55:45;7.18;;;1.92;;
47431;SDS011;33183;52.290;6.144;2023-02-03T08:58:11;6.95;;;2.47;;
47431;SDS011;33183;52.290;6.144;2023-02-03T09:00:36;5.05;;;1.58;;
47431;SDS011;33183;52.290;6.144;2023-02-03T09:03:01;5.30;;;1.55;;
47431;SDS011;33183;52.290;6.144;2023-02-03T09:05:29;6.45;;;2.10;;
47431;SDS011;33183;52.290;6.144;2023-02-03T09:07:55;4.97;;;1.75;;
47431;SDS011;33183;52.290;6.144;2023-02-03T09:10:20;5.00;;;1.83;;
47431;SDS011;33183;52.290;6.144;2023-02-03T09:12:45;4.72;;;1.75;;
47431;SDS011;33183;52.290;6.144;2023-02-03T09:15:10;7.68;;;1.80;;
47431;SDS011;33183;52.290;6.144;2023-02-03T09:17:36;5.88;;;1.80;;
47431;SDS011;33183;52.290;6.144;2023-02-03T09:20:01;4.75;;;1.48;;
47431;SDS011;33183;52.290;6.144;2023-02-03T09:22:26;8.82;;;2.08;;
47431;SDS011;33183;52.290;6.144;2023-02-03T09:24:52;7.38;;;2.80;;
47431;SDS011;33183;52.290;6.144;2023-02-03T09:27:17;3.95;;;1.58;;
47431;SDS011;33183;52.290;6.144;2023-02-03T09:29:42;3.55;;;1.63;;
47431;SDS011;33183;52.290;6.144;2023-02-03T09:32:08;3.70;;;1.63;;
47431;SDS011;33183;52.290;6.144;2023-02-03T09:34:34;6.80;;;2.13;;
47431;SDS011;33183;52.290;6.144;2023-02-03T09:37:00;5.40;;;1.95;;
47431;SDS011;33183;52.290;6.144;2023-02-03T09:39:25;6.13;;;1.60;;
47431;SDS011;33183;52.290;6.144;2023-02-03T09:44:37;4.28;;;2.05;;
47431;SDS011;33183;52.290;6.144;2023-02-03T09:47:27;5.10;;;1.60;;
47431;SDS011;33183;52.290;6.144;2023-02-03T09:50:00;4.30;;;1.52;;
47431;SDS011;33183;52.290;6.144;2023-02-03T09:52:29;6.53;;;1.88;;
47431;SDS011;33183;52.290;6.144;2023-02-03T09:57:42;6.15;;;1.90;;
47431;SDS011;33183;52.290;6.144;2023-02-03T10:00:20;8.10;;;1.90;;
47431;SDS011;33183;52.290;6.144;2023-02-03T10:11:16;4.43;;;1.52;;
47431;SDS011;33183;52.290;6.144;2023-02-03T10:18:47;3.20;;;1.25;;
47431;SDS011;33183;52.290;6.144;2023-02-03T10:21:16;6.28;;;1.77;;
47431;SDS011;33183;52.290;6.144;2023-02-03T10:23:48;4.30;;;1.48;;
47431;SDS011;33183;52.290;6.144;2023-02-03T10:26:21;4.50;;;1.70;;
47431;SDS011;33183;52.290;6.144;2023-02-03T10:28:52;5.72;;;1.95;;
47431;SDS011;33183;52.290;6.144;2023-02-03T10:31:20;5.63;;;1.90;;
47431;SDS011;33183;52.290;6.144;2023-02-03T10:33:47;4.25;;;1.52;;
47431;SDS011;33183;52.290;6.144;2023-02-03T10:36:20;5.53;;;1.88;;
47431;SDS011;33183;52.290;6.144;2023-02-03T10:39:03;8.27;;;1.73;;
47431;SDS011;33183;52.290;6.144;2023-02-03T10:41:36;4.25;;;1.63;;
47431;SDS011;33183;52.290;6.144;2023-02-03T10:44:02;5.65;;;1.83;;
47431;SDS011;33183;52.290;6.144;2023-02-03T10:46:32;5.35;;;1.70;;
47431;SDS011;33183;52.290;6.144;2023-02-03T10:48:59;5.90;;;1.73;;
47431;SDS011;33183;52.290;6.144;2023-02-03T10:51:26;3.08;;;1.33;;
47431;SDS011;33183;52.290;6.144;2023-02-03T10:53:56;7.90;;;2.38;;
47431;SDS011;33183;52.290;6.144;2023-02-03T10:56:23;4.50;;;1.80;;
47431;SDS011;33183;52.290;6.144;2023-02-03T10:58:51;3.47;;;1.42;;
47431;SDS011;33183;52.290;6.144;2023-02-03T11:01:19;5.28;;;1.48;;
47431;SDS011;33183;52.290;6.144;2023-02-03T11:04:47;4.77;;;2.00;;
47431;SDS011;33183;52.290;6.144;2023-02-03T11:06:58;4.05;;;1.80;;
47431;SDS011;33183;52.290;6.144;2023-02-03T11:14:50;6.05;;;1.50;;
47431;SDS011;33183;52.290;6.144;2023-02-03T11:17:21;4.60;;;1.30;;
47431;SDS011;33183;52.290;6.144;2023-02-03T11:19:49;3.45;;;1.73;;
47431;SDS011;33183;52.290;6.144;2023-02-03T11:22:29;3.85;;;1.50;;
47431;SDS011;33183;52.290;6.144;2023-02-03T11:24:56;3.67;;;1.23;;
47431;SDS011;33183;52.290;6.144;2023-02-03T11:27:22;3.80;;;1.73;;
47431;SDS011;33183;52.290;6.144;2023-02-03T11:29:49;4.20;;;1.73;;
47431;SDS011;33183;52.290;6.144;2023-02-03T11:32:20;3.22;;;1.48;;
47431;SDS011;33183;52.290;6.144;2023-02-03T11:34:54;4.53;;;1.50;;
47431;SDS011;33183;52.290;6.144;2023-02-03T11:42:32;4.18;;;1.50;;
47431;SDS011;33183;52.290;6.144;2023-02-03T11:47:44;4.20;;;1.60;;
47431;SDS011;33183;52.290;6.144;2023-02-03T11:50:17;5.78;;;1.60;;
47431;SDS011;33183;52.290;6.144;2023-02-03T11:55:49;3.72;;;1.80;;
47431;SDS011;33183;52.290;6.144;2023-02-03T11:58:33;5.85;;;1.58;;
47431;SDS011;33183;52.290;6.144;2023-02-03T12:09:41;5.40;;;1.52;;
47431;SDS011;33183;52.290;6.144;2023-02-03T12:12:26;4.30;;;1.83;;
47431;SDS011;33183;52.290;6.144;2023-02-03T12:17:39;3.42;;;1.30;;
47431;SDS011;33183;52.290;6.144;2023-02-03T12:23:11;4.68;;;1.67;;
47431;SDS011;33183;52.290;6.144;2023-02-03T12:28:45;4.45;;;1.52;;
47431;SDS011;33183;52.290;6.144;2023-02-03T12:34:20;4.32;;;1.50;;
47431;SDS011;33183;52.290;6.144;2023-02-03T12:36:47;4.85;;;1.67;;
47431;SDS011;33183;52.290;6.144;2023-02-03T12:39:19;4.75;;;1.77;;
47431;SDS011;33183;52.290;6.144;2023-02-03T12:44:43;5.90;;;1.80;;
47431;SDS011;33183;52.290;6.144;2023-02-03T12:47:33;2.92;;;1.35;;
47431;SDS011;33183;52.290;6.144;2023-02-03T12:50:06;6.97;;;1.60;;
47431;SDS011;33183;52.290;6.144;2023-02-03T12:55:24;4.18;;;1.60;;
47431;SDS011;33183;52.290;6.144;2023-02-03T13:05:59;4.78;;;1.58;;
47431;SDS011;33183;52.290;6.144;2023-02-03T13:08:40;5.88;;;1.63;;
47431;SDS011;33183;52.290;6.144;2023-02-03T13:11:11;6.28;;;1.67;;
47431;SDS011;33183;52.290;6.144;2023-02-03T13:13:46;5.03;;;1.58;;
47431;SDS011;33183;52.290;6.144;2023-02-03T13:16:12;5.13;;;1.75;;
47431;SDS011;33183;52.290;6.144;2023-02-03T13:18:41;4.20;;;1.52;;
47431;SDS011;33183;52.290;6.144;2023-02-03T13:21:10;6.40;;;1.63;;
47431;SDS011;33183;52.290;6.144;2023-02-03T13:23:36;5.38;;;1.75;;
47431;SDS011;33183;52.290;6.144;2023-02-03T13:26:24;7.53;;;1.88;;
47431;SDS011;33183;52.290;6.144;2023-02-03T13:36:55;4.18;;;1.60;;
47431;SDS011;33183;52.290;6.144;2023-02-03T13:39:49;6.25;;;1.70;;
47431;SDS011;33183;52.290;6.144;2023-02-03T13:42:26;8.80;;;2.53;;
47431;SDS011;33183;52.290;6.144;2023-02-03T13:44:58;7.38;;;1.98;;
47431;SDS011;33183;52.290;6.144;2023-02-03T13:47:29;6.07;;;1.73;;
47431;SDS011;33183;52.290;6.144;2023-02-03T13:49:57;4.15;;;1.60;;
47431;SDS011;33183;52.290;6.144;2023-02-03T13:52:26;5.45;;;1.80;;
47431;SDS011;33183;52.290;6.144;2023-02-03T13:54:52;7.47;;;2.40;;
47431;SDS011;33183;52.290;6.144;2023-02-03T13:57:22;5.68;;;2.20;;
47431;SDS011;33183;52.290;6.144;2023-02-03T13:59:52;8.85;;;2.00;;
47431;SDS011;33183;52.290;6.144;2023-02-03T14:12:53;12.43;;;2.55;;
47431;SDS011;33183;52.290;6.144;2023-02-03T14:17:59;9.73;;;2.97;;
47431;SDS011;33183;52.290;6.144;2023-02-03T14:22:52;11.63;;;2.97;;
47431;SDS011;33183;52.290;6.144;2023-02-03T14:25:19;6.72;;;2.10;;
47431;SDS011;33183;52.290;6.144;2023-02-03T14:27:45;8.82;;;2.47;;
47431;SDS011;33183;52.290;6.144;2023-02-03T14:30:13;6.85;;;2.30;;
47431;SDS011;33183;52.290;6.144;2023-02-03T14:32:53;7.78;;;2.13;;
47431;SDS011;33183;52.290;6.144;2023-02-03T14:35:38;8.30;;;2.17;;
47431;SDS011;33183;52.290;6.144;2023-02-03T14:38:10;7.93;;;2.53;;
47431;SDS011;33183;52.290;6.144;2023-02-03T14:48:29;7.68;;;2.17;;
47431;SDS011;33183;52.290;6.144;2023-02-03T14:59:35;8.88;;;2.60;;
47431;SDS011;33183;52.290;6.144;2023-02-03T15:02:09;9.13;;;2.50;;
47431;SDS011;33183;52.290;6.144;2023-02-03T15:04:39;7.80;;;2.47;;
47431;SDS011;33183;52.290;6.144;2023-02-03T15:07:05;5.88;;;1.80;;
47431;SDS011;33183;52.290;6.144;2023-02-03T15:09:41;9.95;;;2.60;;
47431;SDS011;33183;52.290;6.144;2023-02-03T15:12:16;8.60;;;2.75;;
47431;SDS011;33183;52.290;6.144;2023-02-03T15:14:48;9.82;;;3.05;;
47431;SDS011;33183;52.290;6.144;2023-02-03T15:17:20;8.63;;;2.40;;
47431;SDS011;33183;52.290;6.144;2023-02-03T15:19:47;6.85;;;2.50;;
47431;SDS011;33183;52.290;6.144;2023-02-03T15:24:44;9.93;;;2.97;;
47431;SDS011;33183;52.290;6.144;2023-02-03T15:27:19;9.45;;;2.80;;
47431;SDS011;33183;52.290;6.144;2023-02-03T15:29:46;7.78;;;2.03;;
47431;SDS011;33183;52.290;6.144;2023-02-03T15:32:13;8.48;;;2.35;;
47431;SDS011;33183;52.290;6.144;2023-02-03T15:34:44;7.30;;;2.30;;
47431;SDS011;33183;52.290;6.144;2023-02-03T15:37:36;10.15;;;2.90;;
47431;SDS011;33183;52.290;6.144;2023-02-03T15:40:15;7.18;;;2.50;;
47431;SDS011;33183;52.290;6.144;2023-02-03T15:45:33;9.60;;;2.90;;
47431;SDS011;33183;52.290;6.144;2023-02-03T15:48:12;8.90;;;2.28;;
47431;SDS011;33183;52.290;6.144;2023-02-03T15:50:45;9.40;;;3.05;;
47431;SDS011;33183;52.290;6.144;2023-02-03T15:56:01;10.30;;;3.17;;
47431;SDS011;33183;52.290;6.144;2023-02-03T15:58:31;8.88;;;3.35;;
47431;SDS011;33183;52.290;6.144;2023-02-03T16:01:04;5.95;;;2.45;;
47431;SDS011;33183;52.290;6.144;2023-02-03T16:06:32;9.15;;;2.60;;
47431;SDS011;33183;52.290;6.144;2023-02-03T16:09:01;7.32;;;2.63;;
47431;SDS011;33183;52.290;6.144;2023-02-03T16:13:57;8.55;;;3.13;;
47431;SDS011;33183;52.290;6.144;2023-02-03T16:16:34;7.88;;;2.35;;
47431;SDS011;33183;52.290;6.144;2023-02-03T16:19:02;6.75;;;2.55;;
47431;SDS011;33183;52.290;6.144;2023-02-03T16:23:54;9.68;;;2.67;;
47431;SDS011;33183;52.290;6.144;2023-02-03T16:26:24;8.98;;;2.63;;
47431;SDS011;33183;52.290;6.144;2023-02-03T16:28:55;9.13;;;2.67;;
47431;SDS011;33183;52.290;6.144;2023-02-03T16:31:45;10.75;;;2.78;;
47431;SDS011;33183;52.290;6.144;2023-02-03T16:34:29;7.60;;;3.00;;
47431;SDS011;33183;52.290;6.144;2023-02-03T16:37:24;10.70;;;4.22;;
47431;SDS011;33183;52.290;6.144;2023-02-03T16:40:10;10.25;;;2.85;;
47431;SDS011;33183;52.290;6.144;2023-02-03T16:42:55;10.90;;;3.20;;
47431;SDS011;33183;52.290;6.144;2023-02-03T16:45:39;9.55;;;2.85;;
47431;SDS011;33183;52.290;6.144;2023-02-03T16:48:23;11.30;;;3.63;;
47431;SDS011;33183;52.290;6.144;2023-02-03T16:51:14;10.88;;;2.88;;
47431;SDS011;33183;52.290;6.144;2023-02-03T16:53:41;14.93;;;3.35;;
47431;SDS011;33183;52.290;6.144;2023-02-03T16:56:08;14.43;;;3.40;;
47431;SDS011;33183;52.290;6.144;2023-02-03T16:58:33;10.85;;;3.53;;
47431;SDS011;33183;52.290;6.144;2023-02-03T17:00:59;14.50;;;4.00;;
47431;SDS011;33183;52.290;6.144;2023-02-03T17:03:27;13.07;;;3.08;;
47431;SDS011;33183;52.290;6.144;2023-02-03T17:05:53;7.45;;;3.45;;
47431;SDS011;33183;52.290;6.144;2023-02-03T17:08:22;10.68;;;3.92;;
47431;SDS011;33183;52.290;6.144;2023-02-03T17:10:49;8.50;;;3.15;;
47431;SDS011;33183;52.290;6.144;2023-02-03T17:13:15;8.80;;;3.70;;
47431;SDS011;33183;52.290;6.144;2023-02-03T17:15:43;12.18;;;4.55;;
47431;SDS011;33183;52.290;6.144;2023-02-03T17:18:11;19.38;;;4.80;;
47431;SDS011;33183;52.290;6.144;2023-02-03T17:20:39;14.30;;;5.47;;
47431;SDS011;33183;52.290;6.144;2023-02-03T17:23:05;11.63;;;4.80;;
47431;SDS011;33183;52.290;6.144;2023-02-03T17:25:31;14.18;;;5.28;;
47431;SDS011;33183;52.290;6.144;2023-02-03T17:27:59;11.50;;;5.65;;